sensor_id;sensor_type;location;lat;lon;timestamp;P1;durP1;ratioP1;P2;durP2;ratioP2
9968;SDS011;5025;48.890;9.278;2023-02-15T00:01:08;20.13;;;17.50;;
9968;SDS011;5025;48.890;9.278;2023-02-15T00:03:35;21.40;;;18.13;;
9968;SDS011;5025;48.890;9.278;2023-02-15T00:06:00;18.93;;;15.37;;
9968;SDS011;5025;48.890;9.278;2023-02-15T00:08:26;18.03;;;15.40;;
9968;SDS011;5025;48.890;9.278;2023-02-15T00:10:51;17.83;;;15.93;;
9968;SDS011;5025;48.890;9.278;2023-02-15T00:13:16;16.80;;;15.00;;
9968;SDS011;5025;48.890;9.278;2023-02-15T00:15:42;17.87;;;14.90;;
9968;SDS011;5025;48.890;9.278;2023-02-15T00:18:07;18.47;;;15.37;;
9968;SDS011;5025;48.890;9.278;2023-02-15T00:20:32;15.53;;;13.77;;
9968;SDS011;5025;48.890;9.278;2023-02-15T00:22:58;16.27;;;14.10;;
9968;SDS011;5025;48.890;9.278;2023-02-15T00:25:23;18.77;;;15.00;;
9968;SDS011;5025;48.890;9.278;2023-02-15T00:27:49;17.87;;;14.27;;
9968;SDS011;5025;48.890;9.278;2023-02-15T00:30:14;16.03;;;13.80;;
9968;SDS011;5025;48.890;9.278;2023-02-15T00:32:39;16.00;;;13.60;;
9968;SDS011;5025;48.890;9.278;2023-02-15T00:35:05;16.53;;;13.90;;
9968;SDS011;5025;48.890;9.278;2023-02-15T00:37:31;16.87;;;14.30;;
9968;SDS011;5025;48.890;9.278;2023-02-15T00:39:57;16.53;;;13.60;;
9968;SDS011;5025;48.890;9.278;2023-02-15T00:42:22;16.23;;;13.57;;
9968;SDS011;5025;48.890;9.278;2023-02-15T00:44:47;14.23;;;12.07;;
9968;SDS011;5025;48.890;9.278;2023-02-15T00:47:13;13.40;;;12.00;;
9968;SDS011;5025;48.890;9.278;2023-02-15T00:49:38;14.77;;;12.63;;
9968;SDS011;5025;48.890;9.278;2023-02-15T00:52:03;14.47;;;12.23;;
9968;SDS011;5025;48.890;9.278;2023-02-15T00:54:28;15.07;;;12.90;;
9968;SDS011;5025;48.890;9.278;2023-02-15T00:56:54;13.13;;;11.70;;
9968;SDS011;5025;48.890;9.278;2023-02-15T00:59:19;13.70;;;12.20;;
9968;SDS011;5025;48.890;9.278;2023-02-15T01:01:44;14.97;;;12.33;;
9968;SDS011;5025;48.890;9.278;2023-02-15T01:04:09;18.13;;;15.27;;
9968;SDS011;5025;48.890;9.278;2023-02-15T01:06:35;18.73;;;15.60;;
9968;SDS011;5025;48.890;9.278;2023-02-15T01:09:01;20.13;;;15.13;;
9968;SDS011;5025;48.890;9.278;2023-02-15T01:11:26;16.53;;;14.60;;
9968;SDS011;5025;48.890;9.278;2023-02-15T01:13:56;17.40;;;14.87;;
9968;SDS011;5025;48.890;9.278;2023-02-15T01:16:23;16.70;;;14.63;;
9968;SDS011;5025;48.890;9.278;2023-02-15T01:18:49;17.00;;;14.77;;
9968;SDS011;5025;48.890;9.278;2023-02-15T01:21:16;18.13;;;15.07;;
9968;SDS011;5025;48.890;9.278;2023-02-15T01:23:43;17.50;;;15.13;;
9968;SDS011;5025;48.890;9.278;2023-02-15T01:26:09;19.03;;;15.00;;
9968;SDS011;5025;48.890;9.278;2023-02-15T01:28:35;15.70;;;13.70;;
9968;SDS011;5025;48.890;9.278;2023-02-15T01:31:10;16.73;;;13.83;;
9968;SDS011;5025;48.890;9.278;2023-02-15T01:33:37;15.83;;;13.23;;
9968;SDS011;5025;48.890;9.278;2023-02-15T01:36:03;15.73;;;13.53;;
9968;SDS011;5025;48.890;9.278;2023-02-15T01:38:29;16.63;;;13.83;;
9968;SDS011;5025;48.890;9.278;2023-02-15T01:40:54;14.83;;;13.23;;
9968;SDS011;5025;48.890;9.278;2023-02-15T01:43:43;14.73;;;12.90;;
9968;SDS011;5025;48.890;9.278;2023-02-15T01:46:10;16.00;;;13.80;;
9968;SDS011;5025;48.890;9.278;2023-02-15T01:48:40;16.80;;;13.83;;
9968;SDS011;5025;48.890;9.278;2023-02-15T01:51:11;17.10;;;14.00;;
9968;SDS011;5025;48.890;9.278;2023-02-15T01:53:39;16.20;;;13.97;;
9968;SDS011;5025;48.890;9.278;2023-02-15T01:56:12;15.90;;;12.97;;
9968;SDS011;5025;48.890;9.278;2023-02-15T01:58:46;18.73;;;14.83;;
9968;SDS011;5025;48.890;9.278;2023-02-15T02:01:14;18.70;;;14.80;;
9968;SDS011;5025;48.890;9.278;2023-02-15T02:03:56;18.73;;;14.90;;
9968;SDS011;5025;48.890;9.278;2023-02-15T02:06:27;19.27;;;15.33;;
9968;SDS011;5025;48.890;9.278;2023-02-15T02:08:53;19.03;;;14.93;;
9968;SDS011;5025;48.890;9.278;2023-02-15T02:11:19;19.30;;;15.63;;
9968;SDS011;5025;48.890;9.278;2023-02-15T02:13:45;17.00;;;13.87;;
9968;SDS011;5025;48.890;9.278;2023-02-15T02:16:14;19.80;;;15.57;;
9968;SDS011;5025;48.890;9.278;2023-02-15T02:32:48;15.87;;;14.10;;
9968;SDS011;5025;48.890;9.278;2023-02-15T02:35:22;13.10;;;11.63;;
9968;SDS011;5025;48.890;9.278;2023-02-15T02:46:17;12.30;;;10.77;;
9968;SDS011;5025;48.890;9.278;2023-02-15T02:48:49;10.17;;;9.07;;
9968;SDS011;5025;48.890;9.278;2023-02-15T02:51:15;11.23;;;10.03;;
9968;SDS011;5025;48.890;9.278;2023-02-15T02:53:46;10.43;;;9.33;;
9968;SDS011;5025;48.890;9.278;2023-02-15T02:56:19;10.57;;;9.47;;
9968;SDS011;5025;48.890;9.278;2023-02-15T02:58:57;10.37;;;9.13;;
9968;SDS011;5025;48.890;9.278;2023-02-15T03:01:48;10.23;;;9.23;;
9968;SDS011;5025;48.890;9.278;2023-02-15T03:04:21;9.60;;;8.60;;
9968;SDS011;5025;48.890;9.278;2023-02-15T03:06:56;9.67;;;8.70;;
9968;SDS011;5025;48.890;9.278;2023-02-15T03:09:27;9.60;;;8.60;;
9968;SDS011;5025;48.890;9.278;2023-02-15T03:12:06;10.33;;;8.83;;
9968;SDS011;5025;48.890;9.278;2023-02-15T03:14:33;9.17;;;8.33;;
9968;SDS011;5025;48.890;9.278;2023-02-15T03:16:59;8.73;;;7.83;;
9968;SDS011;5025;48.890;9.278;2023-02-15T03:19:27;8.30;;;7.50;;
9968;SDS011;5025;48.890;9.278;2023-02-15T03:22:00;10.17;;;9.13;;
9968;SDS011;5025;48.890;9.278;2023-02-15T03:24:44;9.40;;;8.50;;
9968;SDS011;5025;48.890;9.278;2023-02-15T03:27:17;9.93;;;8.90;;
9968;SDS011;5025;48.890;9.278;2023-02-15T03:29:47;10.00;;;8.47;;
9968;SDS011;5025;48.890;9.278;2023-02-15T03:32:16;9.40;;;8.50;;
9968;SDS011;5025;48.890;9.278;2023-02-15T03:34:43;8.80;;;7.90;;
9968;SDS011;5025;48.890;9.278;2023-02-15T03:37:10;8.97;;;8.07;;
9968;SDS011;5025;48.890;9.278;2023-02-15T03:42:20;8.67;;;7.83;;
9968;SDS011;5025;48.890;9.278;2023-02-15T03:44:58;8.80;;;8.00;;
9968;SDS011;5025;48.890;9.278;2023-02-15T03:47:33;7.73;;;7.03;;
9968;SDS011;5025;48.890;9.278;2023-02-15T03:50:04;8.03;;;7.30;;
9968;SDS011;5025;48.890;9.278;2023-02-15T03:52:54;8.10;;;7.30;;
9968;SDS011;5025;48.890;9.278;2023-02-15T03:55:20;8.10;;;7.30;;
9968;SDS011;5025;48.890;9.278;2023-02-15T03:57:46;8.97;;;8.07;;
9968;SDS011;5025;48.890;9.278;2023-02-15T04:00:30;8.27;;;7.47;;
9968;SDS011;5025;48.890;9.278;2023-02-15T04:05:58;8.23;;;7.43;;
9968;SDS011;5025;48.890;9.278;2023-02-15T04:08:27;8.43;;;7.63;;
9968;SDS011;5025;48.890;9.278;2023-02-15T04:11:11;8.43;;;7.67;;
9968;SDS011;5025;48.890;9.278;2023-02-15T04:13:36;8.03;;;7.33;;
9968;SDS011;5025;48.890;9.278;2023-02-15T04:16:02;9.67;;;8.73;;
9968;SDS011;5025;48.890;9.278;2023-02-15T04:21:14;8.20;;;7.40;;
9968;SDS011;5025;48.890;9.278;2023-02-15T04:23:58;8.37;;;7.57;;
9968;SDS011;5025;48.890;9.278;2023-02-15T04:26:42;7.93;;;7.23;;
9968;SDS011;5025;48.890;9.278;2023-02-15T04:29:07;8.30;;;7.50;;
9968;SDS011;5025;48.890;9.278;2023-02-15T04:31:32;7.70;;;7.00;;
9968;SDS011;5025;48.890;9.278;2023-02-15T04:33:57;7.67;;;6.97;;
9968;SDS011;5025;48.890;9.278;2023-02-15T04:36:23;7.93;;;7.13;;
9968;SDS011;5025;48.890;9.278;2023-02-15T04:38:48;7.87;;;7.17;;
9968;SDS011;5025;48.890;9.278;2023-02-15T04:41:13;7.00;;;6.40;;
9968;SDS011;5025;48.890;9.278;2023-02-15T04:43:38;7.40;;;6.70;;
9968;SDS011;5025;48.890;9.278;2023-02-15T04:46:04;6.80;;;6.20;;
9968;SDS011;5025;48.890;9.278;2023-02-15T04:48:29;7.00;;;6.40;;
9968;SDS011;5025;48.890;9.278;2023-02-15T04:50:55;8.20;;;7.40;;
9968;SDS011;5025;48.890;9.278;2023-02-15T04:53:20;8.13;;;7.33;;
9968;SDS011;5025;48.890;9.278;2023-02-15T04:55:45;7.60;;;6.90;;
9968;SDS011;5025;48.890;9.278;2023-02-15T04:58:10;7.47;;;6.77;;
9968;SDS011;5025;48.890;9.278;2023-02-15T05:00:36;7.00;;;6.40;;
9968;SDS011;5025;48.890;9.278;2023-02-15T05:03:01;7.33;;;6.67;;
9968;SDS011;5025;48.890;9.278;2023-02-15T05:05:26;7.37;;;6.77;;
9968;SDS011;5025;48.890;9.278;2023-02-15T05:07:52;7.77;;;7.07;;
9968;SDS011;5025;48.890;9.278;2023-02-15T05:10:17;7.53;;;6.83;;
9968;SDS011;5025;48.890;9.278;2023-02-15T05:12:45;7.77;;;7.03;;
9968;SDS011;5025;48.890;9.278;2023-02-15T05:15:10;7.40;;;6.70;;
9968;SDS011;5025;48.890;9.278;2023-02-15T05:17:36;7.70;;;6.90;;
9968;SDS011;5025;48.890;9.278;2023-02-15T05:20:01;9.13;;;6.93;;
9968;SDS011;5025;48.890;9.278;2023-02-15T05:22:26;7.87;;;7.13;;
9968;SDS011;5025;48.890;9.278;2023-02-15T05:24:52;7.77;;;7.07;;
9968;SDS011;5025;48.890;9.278;2023-02-15T05:27:35;7.33;;;6.50;;
9968;SDS011;5025;48.890;9.278;2023-02-15T05:30:19;7.87;;;6.97;;
9968;SDS011;5025;48.890;9.278;2023-02-15T05:32:45;7.83;;;7.03;;
9968;SDS011;5025;48.890;9.278;2023-02-15T05:35:14;7.27;;;6.50;;
9968;SDS011;5025;48.890;9.278;2023-02-15T05:37:40;7.53;;;6.73;;
9968;SDS011;5025;48.890;9.278;2023-02-15T05:40:05;6.60;;;5.83;;
9968;SDS011;5025;48.890;9.278;2023-02-15T05:42:31;7.10;;;6.33;;
9968;SDS011;5025;48.890;9.278;2023-02-15T05:44:57;6.87;;;6.27;;
9968;SDS011;5025;48.890;9.278;2023-02-15T05:47:24;7.70;;;6.50;;
9968;SDS011;5025;48.890;9.278;2023-02-15T05:49:50;7.67;;;6.87;;
9968;SDS011;5025;48.890;9.278;2023-02-15T05:52:15;7.20;;;6.50;;
9968;SDS011;5025;48.890;9.278;2023-02-15T05:54:40;8.53;;;7.00;;
9968;SDS011;5025;48.890;9.278;2023-02-15T05:57:05;8.03;;;7.27;;
9968;SDS011;5025;48.890;9.278;2023-02-15T05:59:31;7.33;;;6.70;;
9968;SDS011;5025;48.890;9.278;2023-02-15T06:01:56;8.00;;;7.20;;
9968;SDS011;5025;48.890;9.278;2023-02-15T06:04:21;8.80;;;7.90;;
9968;SDS011;5025;48.890;9.278;2023-02-15T06:06:46;8.53;;;7.73;;
9968;SDS011;5025;48.890;9.278;2023-02-15T06:09:12;8.70;;;7.80;;
9968;SDS011;5025;48.890;9.278;2023-02-15T06:11:38;7.43;;;6.70;;
9968;SDS011;5025;48.890;9.278;2023-02-15T06:14:03;8.53;;;7.63;;
9968;SDS011;5025;48.890;9.278;2023-02-15T06:16:29;7.93;;;7.13;;
9968;SDS011;5025;48.890;9.278;2023-02-15T06:18:54;7.63;;;6.93;;
9968;SDS011;5025;48.890;9.278;2023-02-15T06:21:19;7.27;;;6.60;;
9968;SDS011;5025;48.890;9.278;2023-02-15T06:23:45;7.30;;;6.60;;
9968;SDS011;5025;48.890;9.278;2023-02-15T06:26:10;9.93;;;7.73;;
9968;SDS011;5025;48.890;9.278;2023-02-15T06:28:35;7.73;;;6.93;;
9968;SDS011;5025;48.890;9.278;2023-02-15T06:31:02;7.80;;;7.07;;
9968;SDS011;5025;48.890;9.278;2023-02-15T06:33:27;7.57;;;6.87;;
9968;SDS011;5025;48.890;9.278;2023-02-15T06:35:55;7.97;;;7.17;;
9968;SDS011;5025;48.890;9.278;2023-02-15T06:38:20;8.00;;;7.30;;
9968;SDS011;5025;48.890;9.278;2023-02-15T06:40:46;7.97;;;7.17;;
9968;SDS011;5025;48.890;9.278;2023-02-15T06:43:11;7.27;;;6.53;;
9968;SDS011;5025;48.890;9.278;2023-02-15T06:45:36;8.40;;;7.30;;
9968;SDS011;5025;48.890;9.278;2023-02-15T06:48:01;7.73;;;7.00;;
9968;SDS011;5025;48.890;9.278;2023-02-15T06:50:27;7.70;;;6.93;;
9968;SDS011;5025;48.890;9.278;2023-02-15T06:52:56;7.30;;;6.60;;
9968;SDS011;5025;48.890;9.278;2023-02-15T06:55:22;7.10;;;6.40;;
9968;SDS011;5025;48.890;9.278;2023-02-15T06:57:47;7.27;;;6.57;;
9968;SDS011;5025;48.890;9.278;2023-02-15T07:00:13;7.20;;;6.50;;
9968;SDS011;5025;48.890;9.278;2023-02-15T07:02:39;6.80;;;6.10;;
9968;SDS011;5025;48.890;9.278;2023-02-15T07:05:04;6.90;;;6.20;;
9968;SDS011;5025;48.890;9.278;2023-02-15T07:07:29;6.37;;;5.77;;
9968;SDS011;5025;48.890;9.278;2023-02-15T07:09:55;5.83;;;5.33;;
9968;SDS011;5025;48.890;9.278;2023-02-15T07:12:20;5.90;;;5.30;;
9968;SDS011;5025;48.890;9.278;2023-02-15T07:15:04;6.70;;;6.00;;
9968;SDS011;5025;48.890;9.278;2023-02-15T07:17:31;6.40;;;5.80;;
9968;SDS011;5025;48.890;9.278;2023-02-15T07:19:56;6.40;;;5.83;;
9968;SDS011;5025;48.890;9.278;2023-02-15T07:22:22;6.63;;;6.03;;
9968;SDS011;5025;48.890;9.278;2023-02-15T07:24:47;5.53;;;5.13;;
9968;SDS011;5025;48.890;9.278;2023-02-15T07:27:14;6.53;;;5.93;;
9968;SDS011;5025;48.890;9.278;2023-02-15T07:29:39;6.47;;;5.87;;
9968;SDS011;5025;48.890;9.278;2023-02-15T07:32:04;6.73;;;6.13;;
9968;SDS011;5025;48.890;9.278;2023-02-15T07:34:29;7.20;;;6.50;;
9968;SDS011;5025;48.890;9.278;2023-02-15T07:36:55;6.47;;;5.87;;
9968;SDS011;5025;48.890;9.278;2023-02-15T07:39:20;6.90;;;6.20;;
9968;SDS011;5025;48.890;9.278;2023-02-15T07:41:45;6.60;;;6.00;;
9968;SDS011;5025;48.890;9.278;2023-02-15T07:44:11;6.83;;;6.23;;
9968;SDS011;5025;48.890;9.278;2023-02-15T07:46:38;6.80;;;6.20;;
9968;SDS011;5025;48.890;9.278;2023-02-15T07:49:03;8.07;;;6.83;;
9968;SDS011;5025;48.890;9.278;2023-02-15T07:51:29;8.43;;;7.30;;
9968;SDS011;5025;48.890;9.278;2023-02-15T07:53:54;10.57;;;8.67;;
9968;SDS011;5025;48.890;9.278;2023-02-15T07:56:20;10.97;;;9.30;;
9968;SDS011;5025;48.890;9.278;2023-02-15T07:58:45;10.67;;;9.07;;
9968;SDS011;5025;48.890;9.278;2023-02-15T08:01:17;8.93;;;8.07;;
9968;SDS011;5025;48.890;9.278;2023-02-15T08:03:44;8.47;;;7.63;;
9968;SDS011;5025;48.890;9.278;2023-02-15T08:06:09;9.03;;;8.00;;
9968;SDS011;5025;48.890;9.278;2023-02-15T08:08:37;15.77;;;10.27;;
9968;SDS011;5025;48.890;9.278;2023-02-15T08:11:07;18.53;;;10.70;;
9968;SDS011;5025;48.890;9.278;2023-02-15T08:16:37;12.73;;;9.27;;
9968;SDS011;5025;48.890;9.278;2023-02-15T08:19:19;19.20;;;10.83;;
9968;SDS011;5025;48.890;9.278;2023-02-15T08:21:47;38.07;;;17.17;;
9968;SDS011;5025;48.890;9.278;2023-02-15T08:24:15;31.83;;;15.37;;
9968;SDS011;5025;48.890;9.278;2023-02-15T08:26:42;20.57;;;11.57;;
9968;SDS011;5025;48.890;9.278;2023-02-15T08:29:09;25.50;;;12.57;;
9968;SDS011;5025;48.890;9.278;2023-02-15T08:31:35;18.23;;;10.43;;
9968;SDS011;5025;48.890;9.278;2023-02-15T08:34:02;17.70;;;10.27;;
9968;SDS011;5025;48.890;9.278;2023-02-15T08:36:28;15.80;;;9.80;;
9968;SDS011;5025;48.890;9.278;2023-02-15T08:38:59;12.60;;;9.40;;
9968;SDS011;5025;48.890;9.278;2023-02-15T08:41:30;12.60;;;8.80;;
9968;SDS011;5025;48.890;9.278;2023-02-15T08:43:59;19.87;;;10.83;;
9968;SDS011;5025;48.890;9.278;2023-02-15T08:46:27;13.63;;;10.20;;
9968;SDS011;5025;48.890;9.278;2023-02-15T08:48:54;15.73;;;10.20;;
9968;SDS011;5025;48.890;9.278;2023-02-15T08:51:23;24.63;;;12.77;;
9968;SDS011;5025;48.890;9.278;2023-02-15T08:53:51;22.77;;;12.70;;
9968;SDS011;5025;48.890;9.278;2023-02-15T08:56:19;17.13;;;10.93;;
9968;SDS011;5025;48.890;9.278;2023-02-15T08:58:46;19.10;;;10.90;;
9968;SDS011;5025;48.890;9.278;2023-02-15T09:01:12;16.37;;;9.90;;
9968;SDS011;5025;48.890;9.278;2023-02-15T09:03:42;55.63;;;19.10;;
9968;SDS011;5025;48.890;9.278;2023-02-15T09:06:08;30.40;;;14.00;;
9968;SDS011;5025;48.890;9.278;2023-02-15T09:08:34;29.97;;;14.80;;
9968;SDS011;5025;48.890;9.278;2023-02-15T09:11:12;33.47;;;18.17;;
9968;SDS011;5025;48.890;9.278;2023-02-15T09:13:47;52.50;;;27.03;;
9968;SDS011;5025;48.890;9.278;2023-02-15T09:16:14;40.53;;;21.13;;
9968;SDS011;5025;48.890;9.278;2023-02-15T09:18:41;29.57;;;19.47;;
9968;SDS011;5025;48.890;9.278;2023-02-15T09:21:08;25.23;;;16.83;;
9968;SDS011;5025;48.890;9.278;2023-02-15T09:23:36;177.50;;;66.73;;
9968;SDS011;5025;48.890;9.278;2023-02-15T09:26:02;125.13;;;49.73;;
9968;SDS011;5025;48.890;9.278;2023-02-15T09:28:29;92.60;;;38.90;;
9968;SDS011;5025;48.890;9.278;2023-02-15T09:30:54;63.30;;;28.80;;
9968;SDS011;5025;48.890;9.278;2023-02-15T09:33:20;71.33;;;33.17;;
9968;SDS011;5025;48.890;9.278;2023-02-15T09:35:46;47.67;;;24.03;;
9968;SDS011;5025;48.890;9.278;2023-02-15T09:38:12;32.27;;;18.67;;
9968;SDS011;5025;48.890;9.278;2023-02-15T09:40:39;29.40;;;17.10;;
9968;SDS011;5025;48.890;9.278;2023-02-15T09:43:25;26.00;;;16.30;;
9968;SDS011;5025;48.890;9.278;2023-02-15T09:46:06;23.33;;;15.83;;
9968;SDS011;5025;48.890;9.278;2023-02-15T09:48:40;21.23;;;13.93;;
9968;SDS011;5025;48.890;9.278;2023-02-15T09:56:39;16.90;;;12.60;;
9968;SDS011;5025;48.890;9.278;2023-02-15T10:07:57;14.03;;;12.00;;
9968;SDS011;5025;48.890;9.278;2023-02-15T10:13:29;14.50;;;11.97;;
9968;SDS011;5025;48.890;9.278;2023-02-15T10:19:09;16.87;;;13.67;;
9968;SDS011;5025;48.890;9.278;2023-02-15T10:22:14;15.47;;;13.27;;
9968;SDS011;5025;48.890;9.278;2023-02-15T10:27:32;16.00;;;13.90;;
9968;SDS011;5025;48.890;9.278;2023-02-15T10:30:10;15.60;;;13.20;;
9968;SDS011;5025;48.890;9.278;2023-02-15T10:32:58;17.23;;;13.70;;
9968;SDS011;5025;48.890;9.278;2023-02-15T10:35:34;16.70;;;13.57;;
9968;SDS011;5025;48.890;9.278;2023-02-15T10:38:46;16.97;;;14.07;;
9968;SDS011;5025;48.890;9.278;2023-02-15T10:44:33;16.97;;;14.10;;
9968;SDS011;5025;48.890;9.278;2023-02-15T10:50:13;16.13;;;12.70;;
9968;SDS011;5025;48.890;9.278;2023-02-15T10:55:47;15.80;;;12.77;;
9968;SDS011;5025;48.890;9.278;2023-02-15T11:06:21;17.30;;;14.53;;
9968;SDS011;5025;48.890;9.278;2023-02-15T11:08:52;16.73;;;14.60;;
9968;SDS011;5025;48.890;9.278;2023-02-15T11:11:22;18.60;;;14.73;;
9968;SDS011;5025;48.890;9.278;2023-02-15T11:13:54;16.43;;;13.87;;
9968;SDS011;5025;48.890;9.278;2023-02-15T11:16:28;15.60;;;13.83;;
9968;SDS011;5025;48.890;9.278;2023-02-15T11:18:58;15.63;;;13.90;;
9968;SDS011;5025;48.890;9.278;2023-02-15T11:21:34;15.20;;;13.60;;
9968;SDS011;5025;48.890;9.278;2023-02-15T11:24:08;15.77;;;13.53;;
9968;SDS011;5025;48.890;9.278;2023-02-15T11:26:46;15.10;;;13.50;;
9968;SDS011;5025;48.890;9.278;2023-02-15T11:29:22;14.90;;;13.33;;
9968;SDS011;5025;48.890;9.278;2023-02-15T11:31:56;12.83;;;11.53;;
9968;SDS011;5025;48.890;9.278;2023-02-15T11:34:27;16.57;;;13.97;;
9968;SDS011;5025;48.890;9.278;2023-02-15T11:36:59;17.20;;;15.40;;
9968;SDS011;5025;48.890;9.278;2023-02-15T11:39:29;16.40;;;14.70;;
9968;SDS011;5025;48.890;9.278;2023-02-15T11:41:57;15.93;;;14.23;;
9968;SDS011;5025;48.890;9.278;2023-02-15T11:44:28;17.80;;;16.00;;
9968;SDS011;5025;48.890;9.278;2023-02-15T11:46:57;17.93;;;16.03;;
9968;SDS011;5025;48.890;9.278;2023-02-15T11:49:27;17.33;;;15.63;;
9968;SDS011;5025;48.890;9.278;2023-02-15T11:51:57;18.87;;;16.87;;
9968;SDS011;5025;48.890;9.278;2023-02-15T11:54:28;18.57;;;16.57;;
9968;SDS011;5025;48.890;9.278;2023-02-15T11:56:58;17.90;;;15.60;;
9968;SDS011;5025;48.890;9.278;2023-02-15T11:59:30;15.27;;;13.77;;
9968;SDS011;5025;48.890;9.278;2023-02-15T12:01:59;15.77;;;14.27;;
9968;SDS011;5025;48.890;9.278;2023-02-15T12:04:32;17.57;;;15.67;;
9968;SDS011;5025;48.890;9.278;2023-02-15T12:07:02;17.50;;;15.77;;
9968;SDS011;5025;48.890;9.278;2023-02-15T12:12:26;16.63;;;14.97;;
9968;SDS011;5025;48.890;9.278;2023-02-15T12:14:55;17.60;;;15.83;;
9968;SDS011;5025;48.890;9.278;2023-02-15T12:17:23;16.27;;;14.67;;
9968;SDS011;5025;48.890;9.278;2023-02-15T12:19:52;17.30;;;15.57;;
9968;SDS011;5025;48.890;9.278;2023-02-15T12:22:27;16.53;;;14.83;;
9968;SDS011;5025;48.890;9.278;2023-02-15T12:24:56;16.03;;;14.43;;
9968;SDS011;5025;48.890;9.278;2023-02-15T12:27:26;16.47;;;14.77;;
9968;SDS011;5025;48.890;9.278;2023-02-15T12:29:56;15.17;;;13.57;;
9968;SDS011;5025;48.890;9.278;2023-02-15T12:32:27;15.60;;;13.83;;
9968;SDS011;5025;48.890;9.278;2023-02-15T12:34:56;15.00;;;13.50;;
9968;SDS011;5025;48.890;9.278;2023-02-15T12:37:31;13.73;;;12.43;;
9968;SDS011;5025;48.890;9.278;2023-02-15T12:40:01;13.23;;;12.00;;
9968;SDS011;5025;48.890;9.278;2023-02-15T12:42:43;16.23;;;14.63;;
9968;SDS011;5025;48.890;9.278;2023-02-15T12:45:20;15.80;;;14.23;;
9968;SDS011;5025;48.890;9.278;2023-02-15T12:48:09;14.73;;;13.23;;
9968;SDS011;5025;48.890;9.278;2023-02-15T12:50:34;13.70;;;12.47;;
9968;SDS011;5025;48.890;9.278;2023-02-15T12:53:08;13.77;;;12.40;;
9968;SDS011;5025;48.890;9.278;2023-02-15T12:55:49;14.37;;;12.87;;
9968;SDS011;5025;48.890;9.278;2023-02-15T12:58:17;14.17;;;12.77;;
9968;SDS011;5025;48.890;9.278;2023-02-15T13:00:45;15.43;;;13.93;;
9968;SDS011;5025;48.890;9.278;2023-02-15T13:03:18;14.40;;;13.00;;
9968;SDS011;5025;48.890;9.278;2023-02-15T13:05:46;14.70;;;13.20;;
9968;SDS011;5025;48.890;9.278;2023-02-15T13:08:16;13.73;;;12.43;;
9968;SDS011;5025;48.890;9.278;2023-02-15T13:16:30;12.03;;;10.93;;
9968;SDS011;5025;48.890;9.278;2023-02-15T13:18:58;12.17;;;11.07;;
9968;SDS011;5025;48.890;9.278;2023-02-15T13:21:36;13.43;;;12.17;;
9968;SDS011;5025;48.890;9.278;2023-02-15T13:24:05;11.90;;;10.80;;
9968;SDS011;5025;48.890;9.278;2023-02-15T13:26:38;12.77;;;11.57;;
9968;SDS011;5025;48.890;9.278;2023-02-15T13:29:11;10.87;;;9.83;;
9968;SDS011;5025;48.890;9.278;2023-02-15T13:31:44;11.20;;;10.20;;
9968;SDS011;5025;48.890;9.278;2023-02-15T13:34:12;10.93;;;9.93;;
9968;SDS011;5025;48.890;9.278;2023-02-15T13:39:39;13.57;;;12.23;;
9968;SDS011;5025;48.890;9.278;2023-02-15T13:42:13;45.23;;;34.90;;
9968;SDS011;5025;48.890;9.278;2023-02-15T13:45:08;30.43;;;24.87;;
9968;SDS011;5025;48.890;9.278;2023-02-15T13:48:00;24.70;;;20.93;;
9968;SDS011;5025;48.890;9.278;2023-02-15T14:01:19;15.93;;;14.30;;
9968;SDS011;5025;48.890;9.278;2023-02-15T14:07:14;25.60;;;20.70;;
9968;SDS011;5025;48.890;9.278;2023-02-15T14:16:10;15.20;;;13.60;;
9968;SDS011;5025;48.890;9.278;2023-02-15T14:18:52;14.80;;;13.20;;
9968;SDS011;5025;48.890;9.278;2023-02-15T14:21:30;27.73;;;22.60;;
9968;SDS011;5025;48.890;9.278;2023-02-15T14:29:49;16.83;;;15.13;;
9968;SDS011;5025;48.890;9.278;2023-02-15T14:32:29;15.13;;;13.57;;
9968;SDS011;5025;48.890;9.278;2023-02-15T14:35:12;15.47;;;13.97;;
9968;SDS011;5025;48.890;9.278;2023-02-15T14:48:47;12.80;;;11.60;;
9968;SDS011;5025;48.890;9.278;2023-02-15T14:54:07;10.73;;;9.83;;
9968;SDS011;5025;48.890;9.278;2023-02-15T14:56:34;12.17;;;11.07;;
9968;SDS011;5025;48.890;9.278;2023-02-15T14:59:00;11.90;;;10.80;;
9968;SDS011;5025;48.890;9.278;2023-02-15T15:01:39;10.30;;;9.40;;
9968;SDS011;5025;48.890;9.278;2023-02-15T15:06:57;11.63;;;10.63;;
9968;SDS011;5025;48.890;9.278;2023-02-15T15:09:27;10.77;;;9.87;;
9968;SDS011;5025;48.890;9.278;2023-02-15T15:11:54;13.10;;;11.87;;
9968;SDS011;5025;48.890;9.278;2023-02-15T15:14:38;12.40;;;11.30;;
9968;SDS011;5025;48.890;9.278;2023-02-15T15:17:05;11.43;;;10.40;;
9968;SDS011;5025;48.890;9.278;2023-02-15T15:22:16;10.30;;;9.40;;
9968;SDS011;5025;48.890;9.278;2023-02-15T15:43:54;13.63;;;12.27;;
9968;SDS011;5025;48.890;9.278;2023-02-15T15:46:28;16.03;;;14.63;;
9968;SDS011;5025;48.890;9.278;2023-02-15T15:49:02;13.43;;;12.13;;
9968;SDS011;5025;48.890;9.278;2023-02-15T15:51:33;13.00;;;11.80;;
9968;SDS011;5025;48.890;9.278;2023-02-15T15:54:03;12.63;;;11.47;;
9968;SDS011;5025;48.890;9.278;2023-02-15T15:56:30;14.03;;;12.73;;
9968;SDS011;5025;48.890;9.278;2023-02-15T15:59:00;14.73;;;13.33;;
9968;SDS011;5025;48.890;9.278;2023-02-15T16:01:42;14.10;;;12.80;;
9968;SDS011;5025;48.890;9.278;2023-02-15T16:04:26;14.43;;;13.03;;
9968;SDS011;5025;48.890;9.278;2023-02-15T16:06:54;12.80;;;11.60;;
9968;SDS011;5025;48.890;9.278;2023-02-15T16:09:22;11.77;;;10.70;;
9968;SDS011;5025;48.890;9.278;2023-02-15T16:12:13;14.33;;;12.93;;
9968;SDS011;5025;48.890;9.278;2023-02-15T16:14:42;14.20;;;12.90;;
9968;SDS011;5025;48.890;9.278;2023-02-15T16:17:17;13.63;;;12.33;;
9968;SDS011;5025;48.890;9.278;2023-02-15T16:19:47;15.80;;;14.20;;
9968;SDS011;5025;48.890;9.278;2023-02-15T16:22:13;21.10;;;18.80;;
9968;SDS011;5025;48.890;9.278;2023-02-15T16:29:54;23.97;;;21.40;;
9968;SDS011;5025;48.890;9.278;2023-02-15T16:32:23;23.17;;;20.77;;
9968;SDS011;5025;48.890;9.278;2023-02-15T16:34:57;22.07;;;19.83;;
9968;SDS011;5025;48.890;9.278;2023-02-15T16:37:36;22.53;;;20.23;;
9968;SDS011;5025;48.890;9.278;2023-02-15T16:40:01;19.90;;;18.00;;
9968;SDS011;5025;48.890;9.278;2023-02-15T16:42:26;19.40;;;17.40;;
9968;SDS011;5025;48.890;9.278;2023-02-15T16:45:06;16.67;;;15.07;;
9968;SDS011;5025;48.890;9.278;2023-02-15T16:47:39;15.20;;;13.70;;
9968;SDS011;5025;48.890;9.278;2023-02-15T16:50:10;15.47;;;13.97;;
9968;SDS011;5025;48.890;9.278;2023-02-15T16:52:43;16.90;;;14.17;;
9968;SDS011;5025;48.890;9.278;2023-02-15T16:55:20;15.03;;;13.63;;
9968;SDS011;5025;48.890;9.278;2023-02-15T16:57:48;15.57;;;14.07;;
9968;SDS011;5025;48.890;9.278;2023-02-15T17:00:24;16.03;;;14.43;;
9968;SDS011;5025;48.890;9.278;2023-02-15T17:05:25;16.90;;;15.20;;
9968;SDS011;5025;48.890;9.278;2023-02-15T17:15:40;15.87;;;14.17;;
9968;SDS011;5025;48.890;9.278;2023-02-15T17:20:45;15.50;;;13.90;;
9968;SDS011;5025;48.890;9.278;2023-02-15T17:25:58;17.53;;;15.80;;
9968;SDS011;5025;48.890;9.278;2023-02-15T17:28:27;17.50;;;15.70;;
9968;SDS011;5025;48.890;9.278;2023-02-15T17:30:55;16.93;;;15.27;;
9968;SDS011;5025;48.890;9.278;2023-02-15T17:33:26;15.40;;;13.90;;
9968;SDS011;5025;48.890;9.278;2023-02-15T17:36:19;16.73;;;15.00;;
9968;SDS011;5025;48.890;9.278;2023-02-15T17:39:06;17.83;;;14.53;;
9968;SDS011;5025;48.890;9.278;2023-02-15T17:41:43;15.80;;;14.10;;
9968;SDS011;5025;48.890;9.278;2023-02-15T17:44:09;16.37;;;14.63;;
9968;SDS011;5025;48.890;9.278;2023-02-15T17:46:38;17.23;;;15.43;;
9968;SDS011;5025;48.890;9.278;2023-02-15T17:49:04;18.33;;;15.50;;
9968;SDS011;5025;48.890;9.278;2023-02-15T17:51:30;17.50;;;15.70;;
9968;SDS011;5025;48.890;9.278;2023-02-15T17:53:56;15.13;;;13.53;;
9968;SDS011;5025;48.890;9.278;2023-02-15T17:56:40;16.97;;;15.13;;
9968;SDS011;5025;48.890;9.278;2023-02-15T17:59:06;15.57;;;13.97;;
9968;SDS011;5025;48.890;9.278;2023-02-15T18:01:31;16.03;;;14.33;;
9968;SDS011;5025;48.890;9.278;2023-02-15T18:04:16;16.57;;;14.67;;
9968;SDS011;5025;48.890;9.278;2023-02-15T18:07:00;14.60;;;13.03;;